Time;durP1;ratioP1;P1;durP2;ratioP2;P2;SDS_P1;SDS_P2;PMS_P1;PMS_P2;Temp;Humidity;BMP_temperature;BMP_pressure;BME280_temperature;BME280_humidity;BME280_pressure;Samples;Min_cycle;Max_cycle;Signal;HPM_P1;HPM_P2
2021/09/04 00:02:08;;;;;;;13.50;7.57;;;;;;;10.19;87.61;90982.16;4943617;28;20082;-92
2021/09/04 00:04:44;;;;;;;13.45;7.20;;;;;;;10.19;87.70;90986.59;4943724;28;20045;-92
2021/09/04 00:07:21;;;;;;;11.35;7.07;;;;;;;10.33;87.26;90981.13;4943517;28;20063;-92
2021/09/04 00:09:55;;;;;;;11.93;7.15;;;;;;;10.23;87.11;90977.06;4943201;28;20030;-92
2021/09/04 00:12:29;;;;;;;15.52;7.35;;;;;;;10.18;87.55;90974.66;4959232;28;20022;-92
2021/09/04 00:14:57;;;;;;;14.38;7.70;;;;;;;10.21;87.50;90979.22;4921086;29;20416;-92
2021/09/04 00:17:31;;;;;;;11.75;7.35;;;;;;;10.27;87.37;90981.31;4920471;29;20027;-92
2021/09/04 00:20:05;;;;;;;12.32;7.88;;;;;;;10.19;87.40;90970.97;4905392;29;20031;-92
2021/09/04 00:22:38;;;;;;;12.68;7.53;;;;;;;10.23;87.76;90971.84;4929233;28;20038;-91
2021/09/04 00:25:16;;;;;;;13.48;7.43;;;;;;;10.17;87.30;90963.47;4946387;28;20069;-92
2021/09/04 00:27:52;;;;;;;14.05;6.95;;;;;;;10.13;87.69;90973.00;4946848;28;20034;-91
2021/09/04 00:30:29;;;;;;;12.68;7.30;;;;;;;10.10;87.18;90967.69;4946036;28;20084;-93
2021/09/04 00:32:57;;;;;;;10.35;6.65;;;;;;;9.99;86.32;90957.69;4946328;28;20023;-92
2021/09/04 00:35:30;;;;;;;14.00;7.82;;;;;;;10.08;86.98;90969.88;4946138;28;20026;-92
2021/09/04 00:38:04;;;;;;;12.40;7.00;;;;;;;10.06;87.25;90960.53;4946184;28;20050;-92
2021/09/04 00:40:37;;;;;;;10.90;6.68;;;;;;;9.84;86.07;90955.72;4962002;28;20627;-91
2021/09/04 00:43:15;;;;;;;13.05;7.28;;;;;;;9.80;86.33;90957.44;4946037;28;20026;-92
2021/09/04 00:45:48;;;;;;;11.75;6.97;;;;;;;9.80;87.27;90953.00;4946644;28;20038;-92
2021/09/04 00:48:26;;;;;;;13.85;7.00;;;;;;;9.77;86.54;90955.47;4946542;28;20027;-92
2021/09/04 00:50:58;;;;;;;14.23;6.65;;;;;;;9.80;85.18;90958.19;4962696;28;20026;-93
2021/09/04 00:53:34;;;;;;;9.60;5.95;;;;;;;9.69;85.03;90953.72;4932720;29;20027;-92
2021/09/04 00:56:08;;;;;;;11.70;6.60;;;;;;;9.66;85.42;90951.75;4930188;28;20062;-92
2021/09/04 00:58:43;;;;;;;16.67;7.65;;;;;;;9.55;86.17;90944.34;4927156;28;20030;-91
2021/09/04 01:01:21;;;;;;;10.50;6.25;;;;;;;9.52;86.25;90950.19;4941710;28;20027;-91
2021/09/04 01:03:55;;;;;;;11.95;6.97;;;;;;;9.55;86.32;90951.41;4927102;28;20033;-91
2021/09/04 01:06:32;;;;;;;11.07;6.40;;;;;;;9.44;86.36;90948.44;4942811;28;20035;-92
2021/09/04 01:09:00;;;;;;;11.77;7.65;;;;;;;9.45;86.74;90944.00;4941976;28;20209;-92
2021/09/04 01:11:38;;;;;;;10.80;7.22;;;;;;;9.43;87.47;90949.50;4937169;28;20034;-89
2021/09/04 01:14:15;;;;;;;12.95;7.55;;;;;;;9.40;87.49;90941.56;4946223;28;20026;-90
2021/09/04 01:16:51;;;;;;;12.60;7.57;;;;;;;9.48;87.64;90943.34;4946485;28;20422;-90
2021/09/04 01:19:22;;;;;;;13.05;7.60;;;;;;;9.41;88.42;90943.88;4946441;28;20113;-92
2021/09/04 01:22:02;;;;;;;11.80;7.72;;;;;;;9.40;88.91;90941.56;4959779;28;20023;-92
2021/09/04 01:24:38;;;;;;;14.90;8.00;;;;;;;9.36;89.02;90943.28;4927322;28;20039;-92
2021/09/04 01:27:09;;;;;;;11.77;7.40;;;;;;;9.40;89.19;90937.16;4926744;28;20023;-92
2021/09/04 01:29:46;;;;;;;13.70;7.70;;;;;;;9.39;88.88;90938.22;4926402;28;20031;-92
2021/09/04 01:32:18;;;;;;;13.70;7.80;;;;;;;9.38;88.91;90939.28;4927364;28;20391;-91
2021/09/04 01:34:56;;;;;;;16.02;7.72;;;;;;;9.46;89.26;90940.28;4925595;28;20494;-93
2021/09/04 01:37:34;;;;;;;12.60;7.88;;;;;;;9.53;88.88;90936.09;4926574;28;20019;-92
2021/09/04 01:40:14;;;;;;;12.45;7.47;;;;;;;9.42;89.21;90932.38;4923378;29;20031;-92
2021/09/04 01:42:49;;;;;;;15.15;7.68;;;;;;;9.42;89.44;90931.63;4908198;29;20114;-91
2021/09/04 01:45:26;;;;;;;13.77;7.45;;;;;;;9.45;89.23;90926.53;4907772;29;20027;-92
2021/09/04 01:48:03;;;;;;;11.95;7.30;;;;;;;9.46;88.99;90925.44;4920805;29;20035;-92
2021/09/04 01:50:38;;;;;;;13.40;7.20;;;;;;;9.43;88.98;90926.09;4931559;28;20479;-92
2021/09/04 01:53:12;;;;;;;12.63;7.40;;;;;;;9.36;89.86;90920.63;4926205;28;20038;-92
2021/09/04 01:55:47;;;;;;;11.90;7.28;;;;;;;9.32;89.55;90915.31;4926326;28;20035;-92
2021/09/04 01:58:27;;;;;;;14.27;7.70;;;;;;;9.39;89.51;90919.25;4926578;28;20027;-92
2021/09/04 02:00:59;;;;;;;12.27;7.15;;;;;;;9.42;89.38;90914.16;4926028;28;20030;-92
2021/09/04 02:03:40;;;;;;;13.32;7.78;;;;;;;9.47;89.01;90916.59;4925521;28;20662;-92
2021/09/04 02:06:14;;;;;;;10.70;6.68;;;;;;;9.50;89.04;90918.53;4926631;28;20065;-90
2021/09/04 02:08:50;;;;;;;13.88;7.47;;;;;;;9.37;89.30;90911.03;4936286;28;20129;-92
2021/09/04 02:11:27;;;;;;;10.65;7.68;;;;;;;9.34;89.13;90912.41;4961269;28;20030;-92
2021/09/04 02:14:01;;;;;;;10.95;7.43;;;;;;;9.26;89.16;90910.66;4945019;28;20027;-91
2021/09/04 02:16:38;;;;;;;16.02;7.70;;;;;;;9.22;89.57;90909.75;4944847;28;20018;-91
2021/09/04 02:19:14;;;;;;;13.35;7.53;;;;;;;9.18;89.53;90906.28;4945441;28;20056;-92
2021/09/04 02:21:50;;;;;;;10.90;6.72;;;;;;;9.37;88.31;90903.97;4944887;28;20022;-91
2021/09/04 02:24:28;;;;;;;11.82;7.13;;;;;;;9.38;88.37;90897.69;4944585;28;20030;-92
2021/09/04 02:27:12;;;;;;;10.40;6.80;;;;;;;9.45;88.00;90905.72;4945148;28;20490;-92
2021/09/04 02:29:46;;;;;;;15.63;7.30;;;;;;;9.36;88.59;90901.69;4945105;28;20027;-92
2021/09/04 02:32:18;;;;;;;12.27;8.05;;;;;;;9.23;89.55;90906.09;4959660;28;20026;-92
2021/09/04 02:34:54;;;;;;;13.63;7.53;;;;;;;9.28;89.71;90908.47;4939190;28;20030;-92
2021/09/04 02:37:24;;;;;;;15.07;7.65;;;;;;;9.35;89.70;90900.91;4956853;28;20015;-92
2021/09/04 02:40:02;;;;;;;12.18;7.03;;;;;;;9.36;88.80;90910.22;4940124;28;20050;-91
2021/09/04 02:42:37;;;;;;;15.20;8.15;;;;;;;9.41;89.36;90901.50;4940245;28;20083;-92
2021/09/04 02:45:09;;;;;;;12.65;7.18;;;;;;;9.30;87.69;90898.53;4940359;28;20023;-91
2021/09/04 02:47:44;;;;;;;10.68;6.93;;;;;;;9.22;86.58;90899.34;4924497;28;20031;-91
2021/09/04 02:50:22;;;;;;;12.60;6.93;;;;;;;9.18;88.21;90906.28;4925652;28;20031;-92
2021/09/04 02:52:58;;;;;;;14.75;7.28;;;;;;;9.13;87.80;90896.06;4940580;28;20118;-93
2021/09/04 02:55:31;;;;;;;10.20;7.00;;;;;;;9.12;89.05;90894.53;4925484;28;20077;-92
2021/09/04 02:58:06;;;;;;;13.23;7.20;;;;;;;9.10;87.57;90894.88;4925326;28;20027;-92
2021/09/04 03:00:40;;;;;;;11.27;6.88;;;;;;;8.95;87.47;90898.81;4924690;28;20406;-91
2021/09/04 03:03:11;;;;;;;11.63;6.55;;;;;;;8.92;88.25;90894.25;4941334;28;20101;-92
2021/09/04 03:05:43;;;;;;;11.48;6.68;;;;;;;8.91;88.11;90897.94;4925169;28;20039;-92
2021/09/04 03:08:21;;;;;;;11.60;6.32;;;;;;;8.83;87.50;90888.34;4946960;28;20026;-91
2021/09/04 03:10:54;;;;;;;10.85;6.57;;;;;;;8.74;86.98;90890.25;4943786;28;20119;-91
2021/09/04 03:13:29;;;;;;;16.75;7.30;;;;;;;8.89;86.95;90892.28;4924611;28;20034;-92
2021/09/04 03:16:04;;;;;;;11.93;6.57;;;;;;;8.77;87.75;90889.63;4924206;28;20126;-92
2021/09/04 03:18:43;;;;;;;11.30;6.57;;;;;;;8.69;87.48;90888.59;4925502;28;20736;-92
2021/09/04 03:21:19;;;;;;;12.27;6.95;;;;;;;8.70;88.43;90884.19;4940796;28;20113;-92
2021/09/04 03:23:59;;;;;;;12.43;7.20;;;;;;;8.71;88.41;90890.88;4924726;28;20085;-92
2021/09/04 03:26:31;;;;;;;12.82;8.35;;;;;;;8.71;88.31;90883.09;4925272;28;20109;-92
2021/09/04 03:29:10;;;;;;;12.75;7.45;;;;;;;8.72;89.68;90884.59;4924974;28;20027;-92
2021/09/04 03:31:46;;;;;;;14.07;7.50;;;;;;;8.78;90.51;90886.69;4929667;28;20031;-92
2021/09/04 03:34:24;;;;;;;13.90;7.22;;;;;;;8.90;90.62;90887.84;4921132;29;20122;-91
2021/09/04 03:37:00;;;;;;;13.40;7.55;;;;;;;8.90;90.94;90877.44;4921098;29;20055;-92
2021/09/04 03:39:33;;;;;;;12.70;7.63;;;;;;;9.06;89.98;90881.75;4921347;29;20057;-92
2021/09/04 03:42:10;;;;;;;12.40;7.68;;;;;;;8.95;90.39;90883.22;4921132;29;20396;-93
2021/09/04 03:44:45;;;;;;;12.98;7.30;;;;;;;8.85;89.90;90881.00;4921067;29;20512;-92
2021/09/04 03:47:21;;;;;;;12.07;6.97;;;;;;;8.83;90.82;90883.16;4920969;29;20039;-91
2021/09/04 03:49:55;;;;;;;13.18;7.78;;;;;;;8.79;91.45;90883.03;4931719;28;20035;-92
2021/09/04 03:52:30;;;;;;;13.40;7.72;;;;;;;8.81;91.25;90885.31;4939977;28;20039;-92
2021/09/04 03:55:04;;;;;;;;;;;;;;;8.91;91.13;90884.19;4925008;28;20038;-91
2021/09/04 03:57:46;;;;;;;15.38;7.63;;;;;;;8.94;90.63;90879.09;4955795;28;19910;-93
2021/09/04 04:00:15;;;;;;;12.65;7.22;;;;;;;8.90;89.72;90882.63;4944760;28;20026;-91
2021/09/04 04:02:54;;;;;;;12.73;7.40;;;;;;;8.83;90.39;90878.72;4943549;28;20031;-92
2021/09/04 04:05:25;;;;;;;13.02;7.38;;;;;;;8.91;90.45;90879.75;4958900;28;20027;-92
2021/09/04 04:08:01;;;;;;;16.48;7.63;;;;;;;8.88;91.09;90880.38;4940013;29;20035;-92
2021/09/04 04:10:34;;;;;;;15.32;7.35;;;;;;;8.87;91.04;90881.47;4940056;29;20031;-92
2021/09/04 04:13:07;;;;;;;13.65;7.82;;;;;;;8.83;90.32;90881.31;4934905;28;20109;-92
2021/09/04 04:15:43;;;;;;;12.52;7.55;;;;;;;8.70;90.27;90890.13;4947538;28;20027;-92
2021/09/04 04:18:15;;;;;;;14.57;8.52;;;;;;;8.66;90.66;90878.84;4947189;28;20023;-91
2021/09/04 04:20:52;;;;;;;11.35;7.40;;;;;;;8.70;90.86;90878.97;4946822;28;20059;-92
2021/09/04 04:23:27;;;;;;;13.63;8.40;;;;;;;8.73;91.28;90886.16;5000278;22;20038;-88
2021/09/04 04:26:06;;;;;;;13.25;8.13;;;;;;;8.73;90.80;90883.53;4952940;28;20019;-91
2021/09/04 04:28:42;;;;;;;16.90;8.32;;;;;;;8.76;90.57;90881.06;4970182;28;20027;-91
2021/09/04 04:31:18;;;;;;;14.82;7.57;;;;;;;8.73;90.76;90886.91;4969954;28;20103;-88
2021/09/04 04:33:59;;;;;;;14.40;7.55;;;;;;;8.74;91.02;90882.47;4940021;29;20024;-88
2021/09/04 04:36:36;;;;;;;15.23;8.65;;;;;;;8.70;90.74;90881.56;4926323;29;20034;-89
2021/09/04 04:39:12;;;;;;;13.88;7.97;;;;;;;8.75;90.33;90876.19;4925946;29;20030;-89
2021/09/04 04:41:52;;;;;;;11.60;7.50;;;;;;;8.69;90.65;90877.44;4926485;29;20446;-87
2021/09/04 04:44:29;;;;;;;12.40;7.45;;;;;;;8.57;90.53;90876.28;4924813;29;20031;-89
2021/09/04 04:47:04;;;;;;;13.70;8.00;;;;;;;8.54;90.84;90882.13;4924712;29;20027;-88
2021/09/04 04:49:42;;;;;;;13.05;7.50;;;;;;;8.65;90.45;90886.94;4911385;28;20031;-88
2021/09/04 04:52:21;;;;;;;11.27;7.47;;;;;;;8.59;90.48;90884.53;4941224;28;20023;-86
2021/09/04 04:54:51;;;;;;;14.98;7.60;;;;;;;8.68;89.71;90887.06;4944669;28;20031;-88
2021/09/04 04:57:26;;;;;;;14.25;7.65;;;;;;;8.66;89.52;90883.25;4943862;28;20422;-88
2021/09/04 04:59:59;;;;;;;20.95;7.85;;;;;;;8.60;90.50;90880.88;4944246;28;20027;-88
2021/09/04 05:02:38;;;;;;;12.93;7.43;;;;;;;8.63;90.00;90889.88;4944270;28;20031;-89
2021/09/04 05:05:17;;;;;;;12.52;7.63;;;;;;;8.58;90.50;90888.19;4944543;28;20030;-89
2021/09/04 05:07:51;;;;;;;13.55;8.02;;;;;;;8.58;90.61;90893.41;4944097;28;20027;-88
2021/09/04 05:10:27;;;;;;;16.02;8.48;;;;;;;8.56;90.96;90898.16;4943858;28;20579;-89
2021/09/04 05:13:03;;;;;;;14.73;7.70;;;;;;;8.65;91.40;90898.09;4944075;28;20031;-89
2021/09/04 05:15:38;;;;;;;12.68;8.07;;;;;;;8.69;90.95;90893.03;4948563;28;20050;-88
2021/09/04 05:18:15;;;;;;;13.30;7.22;;;;;;;8.65;90.96;90892.91;4945659;28;20023;-88
2021/09/04 05:20:51;;;;;;;17.00;8.63;;;;;;;8.68;91.76;90896.72;4943579;28;20407;-88
2021/09/04 05:23:30;;;;;;;11.02;7.28;;;;;;;8.82;91.00;90897.22;4960110;28;20023;-89
2021/09/04 05:26:01;;;;;;;15.57;7.68;;;;;;;8.79;91.25;90903.03;4945090;28;20026;-89
2021/09/04 05:28:37;;;;;;;14.60;7.60;;;;;;;8.78;91.16;90891.13;4944184;28;20026;-88
2021/09/04 05:31:04;;;;;;;12.57;7.22;;;;;;;8.77;91.36;90889.63;4942805;28;20496;-89
2021/09/04 05:33:40;;;;;;;13.07;7.70;;;;;;;8.88;90.78;90898.56;4943507;28;20037;-88
2021/09/04 05:36:18;;;;;;;15.43;7.53;;;;;;;8.95;90.47;90895.47;4959755;28;20088;-88
2021/09/04 05:38:49;;;;;;;12.25;7.10;;;;;;;8.95;90.82;90891.00;4929396;28;20062;-91
2021/09/04 05:41:23;;;;;;;11.63;7.60;;;;;;;9.11;89.95;90891.19;4943292;28;20027;-88
2021/09/04 05:44:01;;;;;;;14.10;7.93;;;;;;;9.23;89.03;90893.84;4928299;28;20043;-89
2021/09/04 05:46:36;;;;;;;11.45;6.85;;;;;;;9.26;89.07;90892.44;4927762;28;20038;-89
2021/09/04 05:49:04;;;;;;;12.68;7.57;;;;;;;9.22;89.32;90889.72;4944149;28;20066;-89
2021/09/04 05:51:40;;;;;;;15.18;8.35;;;;;;;9.36;89.11;90892.03;4927567;28;20038;-88
2021/09/04 05:54:16;;;;;;;13.35;7.57;;;;;;;9.36;89.20;90897.22;4963387;28;20037;-86
2021/09/04 05:56:53;;;;;;;13.45;7.72;;;;;;;9.50;88.73;90905.50;4928765;28;20487;-87
2021/09/04 05:59:28;;;;;;;15.88;8.43;;;;;;;9.46;89.08;90902.03;4928936;28;20037;-89
2021/09/04 06:02:01;;;;;;;12.75;7.63;;;;;;;9.47;89.56;90895.00;4943882;28;20065;-89
2021/09/04 06:04:36;;;;;;;15.57;8.18;;;;;;;9.70;89.60;90903.19;4927521;28;20023;-89
2021/09/04 06:07:05;;;;;;;14.48;8.90;;;;;;;9.76;90.09;90901.91;4926353;29;20026;-89
2021/09/04 06:09:42;;;;;;;12.88;8.27;;;;;;;9.95;90.28;90893.59;4923811;29;20035;-90
2021/09/04 06:12:18;;;;;;;13.80;7.88;;;;;;;10.06;89.72;90890.22;4929405;29;20031;-89
2021/09/04 06:14:54;;;;;;;13.52;8.40;;;;;;;10.25;89.49;90894.16;4944378;29;20023;-89
2021/09/04 06:17:26;;;;;;;12.65;7.82;;;;;;;10.23;90.04;90891.09;4934577;29;20085;-89
2021/09/04 06:19:57;;;;;;;15.38;7.90;;;;;;;10.31;90.09;90895.47;4924609;29;20027;-86
2021/09/04 06:22:26;;;;;;;12.05;8.02;;;;;;;10.32;90.64;90886.59;4923548;29;20027;-90
2021/09/04 06:25:03;;;;;;;13.70;8.23;;;;;;;10.49;89.91;90885.56;4936258;29;20404;-89
2021/09/04 06:27:45;;;;;;;13.77;7.97;;;;;;;10.63;89.34;90874.81;4959692;28;20026;-89
2021/09/04 06:30:20;;;;;;;11.75;7.28;;;;;;;10.75;89.43;90882.63;4999039;28;20021;-88
2021/09/04 06:32:56;;;;;;;13.85;7.40;;;;;;;10.77;89.93;90885.66;4953458;28;20173;-89
2021/09/04 06:35:32;;;;;;;12.38;7.53;;;;;;;10.85;89.95;90881.38;4961563;28;20026;-88
2021/09/04 06:38:13;;;;;;;14.20;8.00;;;;;;;10.95;90.02;90881.72;4926878;29;20118;-88
2021/09/04 06:40:50;;;;;;;15.25;8.35;;;;;;;11.09;89.65;90876.09;4907380;29;20470;-87
2021/09/04 06:43:20;;;;;;;15.13;7.97;;;;;;;11.10;88.74;90869.06;4922795;29;20487;-89
2021/09/04 06:45:55;;;;;;;12.70;7.75;;;;;;;11.23;89.22;90880.94;4922611;29;20031;-88
2021/09/04 06:48:30;;;;;;;13.40;8.10;;;;;;;11.32;89.31;90873.75;4936076;29;20041;-87
2021/09/04 06:51:05;;;;;;;13.23;8.20;;;;;;;11.43;89.01;90882.63;4907142;29;20035;-89
2021/09/04 06:53:42;;;;;;;15.45;8.40;;;;;;;11.53;89.12;90883.25;4925915;28;20041;-88
2021/09/04 06:56:15;;;;;;;13.15;8.15;;;;;;;11.64;88.79;90881.66;4926139;28;20027;-86
2021/09/04 06:58:57;;;;;;;14.90;8.77;;;;;;;11.75;88.76;90881.91;4926122;28;20031;-87
2021/09/04 07:01:31;;;;;;;13.23;8.00;;;;;;;11.86;88.87;90882.97;4927443;28;20491;-88
2021/09/04 07:04:09;;;;;;;12.27;7.55;;;;;;;11.95;88.52;90883.56;4925997;28;20039;-88
2021/09/04 07:06:44;;;;;;;12.40;7.55;;;;;;;12.08;87.91;90876.41;4928128;28;20033;-88
2021/09/04 07:09:16;;;;;;;13.38;7.90;;;;;;;12.19;88.58;90883.41;4960525;28;20522;-88
2021/09/04 07:11:50;;;;;;;13.98;7.40;;;;;;;12.30;87.87;90880.28;4975912;28;20036;-88
2021/09/04 07:14:28;;;;;;;11.93;8.05;;;;;;;12.48;87.63;90893.75;4944823;28;20030;-88
2021/09/04 07:17:07;;;;;;;14.00;8.00;;;;;;;12.57;87.82;90889.09;4961260;28;20038;-88
2021/09/04 07:19:48;;;;;;;12.63;8.13;;;;;;;12.76;87.61;90899.63;4977598;28;20026;-87
2021/09/04 07:22:26;;;;;;;13.55;8.43;;;;;;;12.89;87.54;90887.91;4961400;28;20563;-88
2021/09/04 07:25:01;;;;;;;14.40;7.85;;;;;;;13.07;86.66;90887.53;4940886;28;20507;-89
2021/09/04 07:27:39;;;;;;;12.15;7.68;;;;;;;13.14;85.88;90891.06;4926443;28;20031;-88
2021/09/04 07:30:59;;;;;;;13.25;8.20;;;;;;;13.31;85.58;90884.69;4942483;28;20027;-88
2021/09/04 07:33:30;;;;;;;14.05;8.50;;;;;;;13.45;86.20;90886.81;4957632;28;20457;-88
2021/09/04 07:36:10;;;;;;;13.93;8.48;;;;;;;13.63;87.01;90887.91;4944960;28;20398;-86
2021/09/04 07:38:43;;;;;;;14.10;8.73;;;;;;;13.92;88.22;90888.38;4946744;28;20026;-89
2021/09/04 07:41:21;;;;;;;12.85;8.70;;;;;;;14.08;88.21;90896.16;4945388;28;20031;-88
2021/09/04 07:43:55;;;;;;;15.27;8.40;;;;;;;14.27;85.71;90892.72;4929883;28;20491;-88
2021/09/04 07:46:25;;;;;;;14.45;8.73;;;;;;;14.44;85.58;90894.09;4945195;28;20039;-88
2021/09/04 07:49:02;;;;;;;12.77;8.18;;;;;;;14.54;82.92;90891.66;4928100;28;20478;-88
2021/09/04 07:51:32;;;;;;;12.15;7.80;;;;;;;14.77;82.98;90896.09;4940913;29;20039;-87
2021/09/04 07:54:02;;;;;;;12.20;7.47;;;;;;;14.93;80.25;90896.72;4931242;29;20038;-88
2021/09/04 07:56:28;;;;;;;11.52;7.32;;;;;;;15.08;79.36;90881.91;4925596;29;20443;-87
2021/09/04 07:58:57;;;;;;;10.75;6.80;;;;;;;15.37;77.60;90890.13;4938045;28;20080;-86
2021/09/04 08:01:28;;;;;;;10.38;7.07;;;;;;;15.56;79.22;90895.25;4944814;28;20026;-87
2021/09/04 08:03:59;;;;;;;12.77;7.38;;;;;;;15.66;78.44;90899.91;4945925;28;20027;-87
2021/09/04 08:06:29;;;;;;;10.68;6.95;;;;;;;15.72;77.25;90893.22;4931900;28;20019;-88
2021/09/04 08:08:57;;;;;;;11.05;6.45;;;;;;;15.89;78.73;90893.75;4984926;28;20074;-91
2021/09/04 08:11:33;;;;;;;10.65;6.10;;;;;;;15.97;75.23;90892.69;4969020;28;20011;-89
2021/09/04 08:14:02;;;;;;;10.57;6.45;;;;;;;16.04;76.98;90900.63;4930753;28;20109;-86
2021/09/04 08:16:31;;;;;;;10.65;6.57;;;;;;;16.27;70.72;90889.22;4928902;28;20065;-87
2021/09/04 08:18:58;;;;;;;10.18;6.18;;;;;;;16.36;65.69;90887.81;4928112;28;20034;-88
2021/09/04 08:21:24;;;;;;;11.98;6.35;;;;;;;16.42;63.12;90886.31;4938109;29;20506;-87
2021/09/04 08:23:51;;;;;;;9.98;6.20;;;;;;;16.59;63.62;90895.47;4938076;29;20568;-87
2021/09/04 08:26:19;;;;;;;12.05;5.93;;;;;;;16.67;67.75;90891.78;4932543;29;20031;-87
2021/09/04 08:28:45;;;;;;;9.70;6.20;;;;;;;16.79;70.65;90906.56;4910861;28;20023;-86
2021/09/04 08:31:14;;;;;;;9.95;6.40;;;;;;;16.95;66.86;90906.28;4929018;28;20042;-87
2021/09/04 08:33:43;;;;;;;10.70;5.78;;;;;;;17.02;61.49;90903.69;4959405;28;20410;-87
2021/09/04 08:36:13;;;;;;;10.65;6.32;;;;;;;17.11;66.21;90909.38;4943153;28;20058;-88
2021/09/04 08:38:44;;;;;;;9.77;6.10;;;;;;;17.19;64.21;90903.03;4943437;28;20022;-86
2021/09/04 08:41:11;;;;;;;8.38;5.38;;;;;;;17.33;66.51;90904.25;4930084;28;20034;-87
2021/09/04 08:43:39;;;;;;;10.27;5.93;;;;;;;17.37;62.09;90905.00;4938401;28;20031;-87
2021/09/04 08:46:10;;;;;;;8.85;5.97;;;;;;;17.62;61.48;90905.09;4928455;29;20062;-87
2021/09/04 08:48:44;;;;;;;9.30;6.00;;;;;;;17.78;59.75;90910.09;4923321;28;20503;-87
2021/09/04 08:51:15;;;;;;;10.60;5.75;;;;;;;17.79;59.09;90909.72;4967048;28;20033;-90
2021/09/04 08:53:51;;;;;;;9.88;5.72;;;;;;;17.97;63.19;90917.69;4925439;29;20034;-86
2021/09/04 08:56:27;;;;;;;8.82;6.22;;;;;;;18.11;59.52;90909.03;4925048;29;20053;-87
2021/09/04 08:58:59;;;;;;;9.25;6.40;;;;;;;18.02;57.94;90912.06;4924709;29;20031;-88
2021/09/04 09:01:32;;;;;;;9.40;5.97;;;;;;;18.13;59.86;90912.81;4923555;29;20131;-88
2021/09/04 09:04:10;;;;;;;9.53;6.03;;;;;;;18.17;60.32;90912.84;4923533;29;20093;-87
2021/09/04 09:06:42;;;;;;;9.85;6.00;;;;;;;17.91;60.00;90911.25;4931687;29;20031;-88
2021/09/04 09:09:22;;;;;;;11.18;6.65;;;;;;;17.84;62.28;90905.97;4923390;29;20574;-87
2021/09/04 09:11:59;;;;;;;12.73;6.40;;;;;;;18.01;61.71;90909.78;4939217;29;20027;-87
2021/09/04 09:14:33;;;;;;;9.32;6.40;;;;;;;17.96;61.71;90908.25;4923708;29;20038;-86
2021/09/04 09:17:08;;;;;;;8.80;5.88;;;;;;;17.82;63.63;90906.34;4939861;29;20035;-87
2021/09/04 09:19:40;;;;;;;8.63;6.15;;;;;;;17.86;64.10;90909.75;4928803;28;20035;-88
2021/09/04 09:22:17;;;;;;;12.10;6.65;;;;;;;18.27;62.36;90911.31;4924562;28;20046;-87
2021/09/04 09:24:59;;;;;;;10.63;7.15;;;;;;;18.73;62.35;90910.63;4927054;28;20239;-88
2021/09/04 09:27:41;;;;;;;14.88;6.65;;;;;;;18.93;58.29;90926.84;4941754;28;20026;-88
2021/09/04 09:30:13;;;;;;;10.43;5.97;;;;;;;19.10;58.49;90924.19;4959175;28;20027;-88
2021/09/04 09:32:55;;;;;;;11.45;6.80;;;;;;;19.06;58.32;90917.41;4945153;28;20034;-88
2021/09/04 09:35:39;;;;;;;10.90;6.45;;;;;;;19.22;60.88;90917.75;4932403;28;20031;-89
2021/09/04 09:38:14;;;;;;;8.60;6.38;;;;;;;19.42;60.94;90910.16;4962121;28;20180;-89
2021/09/04 09:40:52;;;;;;;9.98;6.03;;;;;;;19.47;61.84;90915.06;4977117;28;20062;-89
2021/09/04 09:43:27;;;;;;;9.45;6.05;;;;;;;19.40;55.88;90909.78;4961869;28;20030;-89
2021/09/04 09:46:07;;;;;;;8.27;5.88;;;;;;;19.45;55.40;90906.75;4945885;28;20030;-88
2021/09/04 09:48:40;;;;;;;10.40;6.10;;;;;;;19.61;56.72;90918.78;4945806;28;20503;-88
2021/09/04 09:51:17;;;;;;;11.50;5.82;;;;;;;19.59;56.71;90912.00;4945542;28;20105;-89
2021/09/04 09:53:52;;;;;;;8.20;5.35;;;;;;;19.71;54.29;90902.16;4945952;28;20026;-90
2021/09/04 09:56:27;;;;;;;12.75;6.32;;;;;;;19.57;54.40;90908.97;4960017;28;20438;-89
2021/09/04 09:58:59;;;;;;;11.27;6.18;;;;;;;19.60;55.34;90907.44;4945865;28;20027;-88
2021/09/04 10:01:26;;;;;;;8.70;5.63;;;;;;;19.71;52.92;90904.78;4946933;29;20027;-90
2021/09/04 10:03:59;;;;;;;17.52;6.20;;;;;;;19.85;53.98;90904.72;4929852;28;20030;-89
2021/09/04 10:06:38;;;;;;;10.13;6.00;;;;;;;19.78;51.99;90896.84;4977632;28;20029;-89
2021/09/04 10:09:13;;;;;;;9.00;5.75;;;;;;;19.76;53.60;90897.22;4977721;28;20074;-87
2021/09/04 10:11:44;;;;;;;11.15;5.82;;;;;;;19.56;53.99;90902.19;4960390;28;20117;-86
2021/09/04 10:14:26;;;;;;;8.57;5.68;;;;;;;19.35;54.26;90896.97;4977457;28;20026;-89
2021/09/04 10:17:01;;;;;;;10.15;5.78;;;;;;;19.53;54.75;90902.19;4962128;28;20036;-90
2021/09/04 10:19:37;;;;;;;10.05;6.00;;;;;;;19.59;56.23;90896.13;4939245;28;20031;-89
2021/09/04 10:22:26;;;;;;;8.70;5.57;;;;;;;19.73;52.43;90886.66;4923416;29;20531;-89
2021/09/04 10:25:04;;;;;;;10.18;6.25;;;;;;;19.48;53.90;90890.13;4962660;23;20034;-93
2021/09/04 10:27:40;;;;;;;9.38;5.82;;;;;;;19.66;54.14;90884.06;4961390;28;20333;-92
2021/09/04 10:30:31;;;;;;;8.60;6.22;;;;;;;19.78;53.61;90886.25;4965734;28;20037;-93
2021/09/04 10:33:11;;;;;;;11.80;6.30;;;;;;;19.86;54.33;90889.63;4979112;28;20038;-93
2021/09/04 10:35:43;;;;;;;9.45;5.30;;;;;;;20.00;52.09;90892.97;4977629;28;20062;-91
2021/09/04 10:38:28;;;;;;;8.13;5.18;;;;;;;20.15;51.19;90898.19;4962813;28;20022;-92
2021/09/04 10:41:22;;;;;;;7.88;5.22;;;;;;;20.23;51.21;90894.34;4962111;28;20033;-91
2021/09/04 10:43:56;;;;;;;8.23;5.03;;;;;;;20.12;51.23;90888.38;4962108;28;20030;-93
2021/09/04 10:46:23;;;;;;;9.10;5.00;;;;;;;19.97;52.94;90890.34;4962385;28;20030;-91
2021/09/04 10:48:59;;;;;;;14.48;7.65;;;;;;;19.86;51.87;90887.75;4962209;28;20117;-93
2021/09/04 10:51:49;;;;;;;7.07;5.32;;;;;;;20.01;49.83;90888.44;4961552;28;20027;-92
2021/09/04 10:55:02;;;;;;;7.85;5.13;;;;;;;20.30;55.46;90889.75;4993402;28;20041;-92
2021/09/04 10:57:44;;;;;;;9.30;5.68;;;;;;;20.16;50.35;90875.88;4986609;28;20038;-91
2021/09/04 11:00:58;;;;;;;9.60;4.88;;;;;;;20.33;49.24;90882.19;4981415;28;20034;-90
2021/09/04 11:03:40;;;;;;;8.52;5.88;;;;;;;20.44;49.39;90875.69;4986619;28;20022;-94
2021/09/04 11:06:20;;;;;;;7.47;4.68;;;;;;;20.62;48.47;90872.16;4964222;28;20479;-93
2021/09/04 11:08:54;;;;;;;6.78;4.97;;;;;;;20.84;50.95;90870.84;4966823;28;20049;-94
2021/09/04 11:11:55;;;;;;;8.20;5.10;;;;;;;20.91;47.29;90873.44;4966759;28;20030;-94
2021/09/04 11:14:34;;;;;;;7.30;4.75;;;;;;;20.98;48.13;90872.63;4969890;28;20038;-93
2021/09/04 11:17:14;;;;;;;7.00;4.75;;;;;;;20.81;46.71;90874.28;4978581;28;20022;-93
2021/09/04 11:19:43;;;;;;;7.90;4.28;;;;;;;21.04;52.02;90865.75;4961203;28;20034;-91
2021/09/04 11:22:23;;;;;;;7.35;5.05;;;;;;;20.91;49.49;90872.69;4960611;28;20026;-91
2021/09/04 11:25:00;;;;;;;7.63;5.13;;;;;;;20.38;47.54;90874.56;4961355;28;20104;-93
2021/09/04 11:27:35;;;;;;;10.48;4.75;;;;;;;20.05;48.66;90874.03;4962629;28;20031;-93
2021/09/04 11:30:20;;;;;;;7.90;4.60;;;;;;;20.19;49.59;90872.44;4976852;28;20033;-92
2021/09/04 11:32:56;;;;;;;10.65;5.65;;;;;;;19.99;50.00;90862.34;4975898;28;20026;-92
2021/09/04 11:35:32;;;;;;;9.68;4.80;;;;;;;19.94;48.13;90862.78;4975984;28;20030;-92
2021/09/04 11:38:07;;;;;;;6.88;4.68;;;;;;;19.96;47.73;90865.75;4990435;28;20030;-92
2021/09/04 11:40:40;;;;;;;8.07;4.75;;;;;;;20.14;46.78;90859.63;4960574;28;20037;-92
2021/09/04 11:43:16;;;;;;;7.13;4.40;;;;;;;19.93;46.47;90855.97;4957720;28;20035;-91
2021/09/04 11:45:52;;;;;;;8.85;5.10;;;;;;;19.93;50.49;90861.28;4982565;28;20113;-92
2021/09/04 11:48:26;;;;;;;8.50;5.43;;;;;;;19.82;55.00;90865.84;4976554;28;20026;-91
2021/09/04 11:51:09;;;;;;;7.68;5.03;;;;;;;19.80;56.85;90874.16;4960092;28;20103;-90
2021/09/04 11:53:44;;;;;;;9.90;5.72;;;;;;;19.71;57.15;90881.00;4959669;28;20033;-91
2021/09/04 11:56:20;;;;;;;;;;;;;;;19.35;58.47;90891.69;4960867;28;20030;-91
2021/09/04 11:58:48;;;;;;;8.80;5.53;;;;;;;19.24;59.56;90889.06;4956023;28;19977;-90
2021/09/04 12:01:21;;;;;;;9.05;5.97;;;;;;;19.09;59.81;90884.97;4939766;28;20049;-89
2021/09/04 12:03:47;;;;;;;8.90;5.93;;;;;;;18.96;61.17;90903.06;4955675;28;20035;-91
2021/09/04 12:06:22;;;;;;;8.70;6.15;;;;;;;18.49;62.40;90904.97;4939870;28;20027;-92
2021/09/04 12:08:58;;;;;;;7.93;5.75;;;;;;;18.60;62.15;90918.16;4939744;28;20077;-91
2021/09/04 12:11:36;;;;;;;9.40;5.88;;;;;;;18.35;62.49;90921.53;4949297;28;20030;-92